Terminal Aerodrome Forecast
Issued by NWS Wilmington, OH

Current Version | Previous Version | Text Only | Print | Product List | Glossary Off
Versions: 1 2 3 4 5 6 7 8 9 10 11 12 13 14 15 16 17 18 19 20 21 22 23 24 25 26 27

000
FTUS41 KILN 261100
TAFILN
TAF
KILN 261138Z 2612/2712 19006KT P6SM SKC
     FM261500 20012KT P6SM SCT200
     FM270800 19006KT P6SM FEW030 BKN200=

USA.gov is the U.S. government's official web portal to all federal, state and local government web resources and services.